VLG64WW LFPO-LECO
Flight info
| Callsign | VLG64WW |
|---|---|
| Flight time | 1h 39m |
| Altitude | 37000 |
| Route | LGL UT176 TERPO UN872 ERIGA UZ218 FUJTI DCT ATLEN N872 VES M190 ROXER |
| Aircraft | A320/M-SDE3FGHIRWY/LB1 |
Departure
| Time | 2026-04-22 10:27 |
|---|---|
| Airport | Paris-Orly Airport (LFPO) |
Arrival
| Time | 2026-04-22 12:06 |
|---|---|
| Airport | A Coruña Airport (LECO) |
| Time | Latitude | Longitude | Altitude | Speed | Heading |
|---|---|---|---|---|---|
| 2026-04-22 09:58 | 48.72717 | 2.36748 | 292 ft | 0 kts | 22° |
| 2026-04-22 10:18 | 48.72703 | 2.36740 | 297 ft | 3 kts | 16° |
| 2026-04-22 10:19 | 48.72684 | 2.36733 | 293 ft | 3 kts | 3° |
| 2026-04-22 10:19 | 48.72664 | 2.36734 | 294 ft | 3 kts | 346° |
| 2026-04-22 10:19 | 48.72646 | 2.36745 | 295 ft | 3 kts | 324° |
| 2026-04-22 10:19 | 48.72632 | 2.36765 | 298 ft | 3 kts | 298° |
| 2026-04-22 10:20 | 48.72625 | 2.36791 | 297 ft | 3 kts | 265° |
| 2026-04-22 10:20 | 48.72626 | 2.36804 | 298 ft | 0 kts | 251° |
| 2026-04-22 10:23 | 48.72624 | 2.36794 | 297 ft | 3 kts | 251° |
| 2026-04-22 10:23 | 48.72613 | 2.36747 | 297 ft | 6 kts | 251° |
| 2026-04-22 10:23 | 48.72593 | 2.36667 | 296 ft | 10 kts | 247° |
| 2026-04-22 10:23 | 48.72534 | 2.36611 | 294 ft | 12 kts | 181° |
| 2026-04-22 10:24 | 48.72477 | 2.36528 | 296 ft | 13 kts | 252° |
| 2026-04-22 10:24 | 48.72450 | 2.36378 | 295 ft | 16 kts | 254° |
| 2026-04-22 10:24 | 48.72381 | 2.36269 | 297 ft | 16 kts | 184° |
| 2026-04-22 10:24 | 48.72278 | 2.36339 | 297 ft | 16 kts | 134° |
| 2026-04-22 10:25 | 48.72228 | 2.36450 | 296 ft | 10 kts | 120° |
| 2026-04-22 10:25 | 48.72189 | 2.36522 | 294 ft | 10 kts | 144° |
| 2026-04-22 10:25 | 48.72137 | 2.36550 | 298 ft | 8 kts | 166° |
| 2026-04-22 10:25 | 48.72089 | 2.36586 | 298 ft | 8 kts | 125° |
| 2026-04-22 10:26 | 48.72095 | 2.36695 | 298 ft | 17 kts | 74° |
| 2026-04-22 10:26 | 48.72193 | 2.37222 | 295 ft | 85 kts | 73° |
| 2026-04-22 10:26 | 48.72398 | 2.38350 | 303 ft | 134 kts | 77° |
| 2026-04-22 10:26 | 48.72639 | 2.39752 | 754 ft | 140 kts | 75° |
| 2026-04-22 10:27 | 48.72899 | 2.41216 | 1350 ft | 147 kts | 74° |
| 2026-04-22 10:27 | 48.73183 | 2.42724 | 1869 ft | 153 kts | 75° |
| 2026-04-22 10:27 | 48.73496 | 2.44353 | 2326 ft | 168 kts | 75° |
| 2026-04-22 10:27 | 48.73838 | 2.46169 | 2692 ft | 192 kts | 77° |
| 2026-04-22 10:28 | 48.74123 | 2.48276 | 3136 ft | 216 kts | 85° |
| 2026-04-22 10:28 | 48.74237 | 2.50630 | 3882 ft | 228 kts | 89° |
| 2026-04-22 10:28 | 48.74301 | 2.53055 | 4809 ft | 234 kts | 89° |
| 2026-04-22 10:28 | 48.74344 | 2.55556 | 5656 ft | 240 kts | 93° |
| 2026-04-22 10:29 | 48.73802 | 2.57943 | 6479 ft | 250 kts | 125° |
| 2026-04-22 10:29 | 48.72338 | 2.59459 | 7252 ft | 268 kts | 160° |
| 2026-04-22 10:29 | 48.70432 | 2.59451 | 8077 ft | 287 kts | 193° |
| 2026-04-22 10:29 | 48.68718 | 2.57815 | 8892 ft | 302 kts | 226° |
| 2026-04-22 10:30 | 48.67748 | 2.54973 | 9710 ft | 311 kts | 256° |
| 2026-04-22 10:30 | 48.67438 | 2.51724 | 10472 ft | 318 kts | 263° |
| 2026-04-22 10:30 | 48.67185 | 2.48275 | 10709 ft | 341 kts | 263° |
| 2026-04-22 10:30 | 48.66919 | 2.44611 | 11036 ft | 358 kts | 264° |
| 2026-04-22 10:31 | 48.66621 | 2.40829 | 11665 ft | 364 kts | 261° |
| 2026-04-22 10:31 | 48.66008 | 2.37072 | 12286 ft | 370 kts | 252° |
| 2026-04-22 10:31 | 48.65095 | 2.33431 | 13060 ft | 372 kts | 247° |
| 2026-04-22 10:31 | 48.64058 | 2.29840 | 13868 ft | 373 kts | 249° |
| 2026-04-22 10:32 | 48.63289 | 2.26091 | 14521 ft | 374 kts | 262° |
| 2026-04-22 10:32 | 48.63099 | 2.22142 | 15180 ft | 370 kts | 277° |
| 2026-04-22 10:32 | 48.63449 | 2.18317 | 15931 ft | 366 kts | 282° |
| 2026-04-22 10:32 | 48.63862 | 2.14536 | 16701 ft | 364 kts | 282° |
| 2026-04-22 10:33 | 48.64265 | 2.10765 | 17450 ft | 363 kts | 282° |
| 2026-04-22 10:33 | 48.64656 | 2.06987 | 18174 ft | 364 kts | 282° |
| 2026-04-22 10:33 | 48.65041 | 2.03204 | 18854 ft | 364 kts | 282° |
| 2026-04-22 10:33 | 48.65424 | 1.99411 | 19479 ft | 366 kts | 282° |
| 2026-04-22 10:34 | 48.65807 | 1.95598 | 20111 ft | 368 kts | 282° |
| 2026-04-22 10:34 | 48.66187 | 1.91765 | 20720 ft | 369 kts | 282° |
| 2026-04-22 10:34 | 48.66568 | 1.87912 | 21314 ft | 371 kts | 282° |
| 2026-04-22 10:34 | 48.66951 | 1.84038 | 21873 ft | 373 kts | 282° |
| 2026-04-22 10:35 | 48.67332 | 1.80145 | 22422 ft | 376 kts | 282° |
| 2026-04-22 10:35 | 48.67714 | 1.76218 | 22973 ft | 378 kts | 282° |
| 2026-04-22 10:35 | 48.68097 | 1.72276 | 23474 ft | 380 kts | 281° |
| 2026-04-22 10:35 | 48.68486 | 1.68292 | 23889 ft | 385 kts | 281° |
| 2026-04-22 10:36 | 48.68875 | 1.64265 | 24301 ft | 388 kts | 281° |
| 2026-04-22 10:36 | 48.69262 | 1.60217 | 24739 ft | 390 kts | 281° |
| 2026-04-22 10:36 | 48.69648 | 1.56145 | 25167 ft | 392 kts | 281° |
| 2026-04-22 10:36 | 48.70038 | 1.52054 | 25583 ft | 393 kts | 281° |
| 2026-04-22 10:37 | 48.70429 | 1.47947 | 25993 ft | 395 kts | 281° |
| 2026-04-22 10:37 | 48.71220 | 1.39670 | 26794 ft | 399 kts | 281° |
| 2026-04-22 10:37 | 48.71618 | 1.35504 | 27193 ft | 401 kts | 281° |
| 2026-04-22 10:38 | 48.72016 | 1.31322 | 27594 ft | 402 kts | 281° |
| 2026-04-22 10:38 | 48.72413 | 1.27111 | 27907 ft | 406 kts | 280° |
| 2026-04-22 10:38 | 48.72810 | 1.22859 | 28226 ft | 410 kts | 280° |
| 2026-04-22 10:38 | 48.73204 | 1.18570 | 28584 ft | 412 kts | 280° |
| 2026-04-22 10:39 | 48.73597 | 1.14254 | 28952 ft | 414 kts | 280° |
| 2026-04-22 10:39 | 48.73992 | 1.09926 | 29316 ft | 416 kts | 280° |
| 2026-04-22 10:39 | 48.74391 | 1.05574 | 29672 ft | 418 kts | 280° |
| 2026-04-22 10:39 | 48.74799 | 1.01140 | 30022 ft | 420 kts | 280° |
| 2026-04-22 10:40 | 48.75198 | 0.96751 | 30399 ft | 421 kts | 280° |
| 2026-04-22 10:40 | 48.75587 | 0.92423 | 30849 ft | 419 kts | 280° |
| 2026-04-22 10:40 | 48.75984 | 0.88012 | 31306 ft | 416 kts | 280° |
| 2026-04-22 10:40 | 48.76371 | 0.83675 | 31736 ft | 415 kts | 279° |
| 2026-04-22 10:41 | 48.76755 | 0.79353 | 32172 ft | 413 kts | 279° |
| 2026-04-22 10:41 | 48.77138 | 0.75040 | 32637 ft | 411 kts | 279° |
| 2026-04-22 10:41 | 48.77517 | 0.70754 | 33111 ft | 409 kts | 279° |
| 2026-04-22 10:41 | 48.77894 | 0.66492 | 33585 ft | 407 kts | 279° |
| 2026-04-22 10:42 | 48.78263 | 0.62246 | 34071 ft | 405 kts | 278° |
| 2026-04-22 10:42 | 48.78317 | 0.57977 | 34474 ft | 406 kts | 267° |
| 2026-04-22 10:42 | 48.77803 | 0.53754 | 34811 ft | 410 kts | 256° |
| 2026-04-22 10:42 | 48.76732 | 0.49720 | 35109 ft | 416 kts | 245° |
| 2026-04-22 10:43 | 48.75131 | 0.46032 | 35398 ft | 423 kts | 234° |
| 2026-04-22 10:43 | 48.73222 | 0.42634 | 35661 ft | 424 kts | 234° |
| 2026-04-22 10:43 | 48.71310 | 0.39241 | 35992 ft | 423 kts | 234° |
| 2026-04-22 10:43 | 48.69401 | 0.35851 | 36302 ft | 423 kts | 234° |
| 2026-04-22 10:44 | 48.67494 | 0.32460 | 36584 ft | 423 kts | 234° |
| 2026-04-22 10:44 | 48.65585 | 0.29072 | 36866 ft | 423 kts | 234° |
| 2026-04-22 10:44 | 48.63676 | 0.25687 | 37074 ft | 423 kts | 234° |
| 2026-04-22 10:45 | 48.59834 | 0.18899 | 37135 ft | 426 kts | 234° |
| 2026-04-22 10:45 | 48.55973 | 0.12090 | 37124 ft | 427 kts | 234° |
| 2026-04-22 10:46 | 48.52136 | 0.05260 | 37126 ft | 427 kts | 234° |
| 2026-04-22 10:46 | 48.48299 | -0.01571 | 37112 ft | 426 kts | 234° |
| 2026-04-22 10:47 | 48.44457 | -0.08375 | 37123 ft | 426 kts | 234° |
| 2026-04-22 10:47 | 48.40578 | -0.15209 | 37120 ft | 427 kts | 234° |
| 2026-04-22 10:48 | 48.36713 | -0.21983 | 37119 ft | 427 kts | 234° |
| 2026-04-22 10:48 | 48.32846 | -0.28753 | 37123 ft | 427 kts | 234° |
| 2026-04-22 10:49 | 48.28949 | -0.35485 | 37114 ft | 427 kts | 233° |
| 2026-04-22 10:49 | 48.25039 | -0.42195 | 37117 ft | 427 kts | 233° |
| 2026-04-22 10:50 | 48.21123 | -0.48902 | 37103 ft | 427 kts | 233° |
| 2026-04-22 10:50 | 48.17209 | -0.55599 | 37113 ft | 427 kts | 233° |
| 2026-04-22 10:51 | 48.13297 | -0.62283 | 37122 ft | 427 kts | 233° |
| 2026-04-22 10:51 | 48.10044 | -0.67827 | 37126 ft | 427 kts | 233° |
| 2026-04-22 10:52 | 48.06126 | -0.74493 | 37127 ft | 427 kts | 233° |
| 2026-04-22 10:52 | 48.02204 | -0.81150 | 37127 ft | 427 kts | 233° |
| 2026-04-22 10:53 | 47.98256 | -0.87832 | 37115 ft | 426 kts | 232° |
| 2026-04-22 10:53 | 47.94326 | -0.94447 | 37086 ft | 426 kts | 232° |
| 2026-04-22 10:54 | 47.90403 | -1.01052 | 37082 ft | 425 kts | 232° |
| 2026-04-22 10:54 | 47.86481 | -1.07640 | 37074 ft | 425 kts | 232° |
| 2026-04-22 10:55 | 47.82562 | -1.14215 | 37071 ft | 425 kts | 232° |
| 2026-04-22 10:55 | 47.78633 | -1.20779 | 37050 ft | 425 kts | 232° |
| 2026-04-22 10:56 | 47.74701 | -1.27326 | 37056 ft | 425 kts | 232° |
| 2026-04-22 10:56 | 47.70766 | -1.33870 | 37057 ft | 425 kts | 232° |
| 2026-04-22 10:57 | 47.66832 | -1.40413 | 37061 ft | 425 kts | 232° |
| 2026-04-22 10:57 | 47.62883 | -1.46940 | 37064 ft | 425 kts | 232° |
| 2026-04-22 10:58 | 47.58931 | -1.53450 | 37058 ft | 425 kts | 232° |
| 2026-04-22 10:58 | 47.54982 | -1.59964 | 37057 ft | 424 kts | 232° |
| 2026-04-22 10:59 | 47.51047 | -1.66462 | 37055 ft | 424 kts | 232° |
| 2026-04-22 10:59 | 47.47104 | -1.72947 | 37055 ft | 423 kts | 231° |
| 2026-04-22 11:00 | 47.43159 | -1.79397 | 37054 ft | 423 kts | 231° |
| 2026-04-22 11:00 | 47.39212 | -1.85827 | 37045 ft | 422 kts | 231° |
| 2026-04-22 11:01 | 47.35158 | -1.92176 | 37038 ft | 425 kts | 224° |
| 2026-04-22 11:01 | 47.30222 | -1.97075 | 37038 ft | 429 kts | 215° |
| 2026-04-22 11:02 | 47.25111 | -2.01640 | 37037 ft | 430 kts | 215° |
| 2026-04-22 11:02 | 47.20003 | -2.06205 | 37036 ft | 430 kts | 215° |
| 2026-04-22 11:03 | 47.14894 | -2.10757 | 37029 ft | 429 kts | 215° |
| 2026-04-22 11:03 | 47.09795 | -2.15287 | 37014 ft | 428 kts | 215° |
| 2026-04-22 11:04 | 47.04698 | -2.19809 | 37025 ft | 428 kts | 215° |
| 2026-04-22 11:04 | 46.99605 | -2.24310 | 37011 ft | 427 kts | 215° |
| 2026-04-22 11:05 | 46.94513 | -2.28803 | 37010 ft | 427 kts | 215° |
| 2026-04-22 11:05 | 46.89425 | -2.33286 | 37004 ft | 427 kts | 215° |
| 2026-04-22 11:06 | 46.84337 | -2.37758 | 37003 ft | 427 kts | 215° |
| 2026-04-22 11:06 | 46.79249 | -2.42222 | 37009 ft | 427 kts | 215° |
| 2026-04-22 11:07 | 46.74165 | -2.46690 | 37008 ft | 426 kts | 215° |
| 2026-04-22 11:07 | 46.69087 | -2.51139 | 37010 ft | 426 kts | 215° |
| 2026-04-22 11:08 | 46.63968 | -2.55587 | 37011 ft | 425 kts | 215° |
| 2026-04-22 11:08 | 46.58885 | -2.60001 | 37007 ft | 425 kts | 215° |
| 2026-04-22 11:09 | 46.53808 | -2.64409 | 36980 ft | 425 kts | 215° |
| 2026-04-22 11:09 | 46.48735 | -2.68811 | 36989 ft | 425 kts | 215° |
| 2026-04-22 11:10 | 46.43659 | -2.73203 | 36989 ft | 425 kts | 215° |
| 2026-04-22 11:10 | 46.38580 | -2.77585 | 36996 ft | 425 kts | 215° |
| 2026-04-22 11:11 | 46.33496 | -2.81963 | 36995 ft | 424 kts | 215° |
| 2026-04-22 11:11 | 46.28424 | -2.86323 | 36991 ft | 424 kts | 215° |
| 2026-04-22 11:12 | 46.23747 | -2.91376 | 36995 ft | 419 kts | 224° |
| 2026-04-22 11:12 | 46.19306 | -2.96810 | 36993 ft | 419 kts | 224° |
| 2026-04-22 11:13 | 46.14857 | -3.02233 | 36992 ft | 419 kts | 224° |
| 2026-04-22 11:13 | 46.10408 | -3.07652 | 36978 ft | 418 kts | 224° |
| 2026-04-22 11:14 | 46.05951 | -3.13058 | 36983 ft | 419 kts | 224° |
| 2026-04-22 11:14 | 46.01498 | -3.18454 | 36991 ft | 418 kts | 224° |
| 2026-04-22 11:15 | 45.97053 | -3.23832 | 36995 ft | 417 kts | 224° |
| 2026-04-22 11:15 | 45.92585 | -3.29224 | 36987 ft | 416 kts | 224° |
| 2026-04-22 11:16 | 45.88153 | -3.34564 | 36976 ft | 416 kts | 224° |
| 2026-04-22 11:16 | 45.83715 | -3.39899 | 36978 ft | 416 kts | 224° |
| 2026-04-22 11:17 | 45.79276 | -3.45214 | 36978 ft | 416 kts | 224° |
| 2026-04-22 11:17 | 45.74836 | -3.50523 | 36982 ft | 416 kts | 224° |
| 2026-04-22 11:18 | 45.70398 | -3.55825 | 36977 ft | 415 kts | 223° |
| 2026-04-22 11:18 | 45.65967 | -3.61107 | 36986 ft | 414 kts | 223° |
| 2026-04-22 11:19 | 45.61535 | -3.66367 | 36988 ft | 414 kts | 223° |
| 2026-04-22 11:19 | 45.57103 | -3.71615 | 36989 ft | 414 kts | 223° |
| 2026-04-22 11:20 | 45.52662 | -3.76854 | 36991 ft | 414 kts | 223° |
| 2026-04-22 11:20 | 45.48230 | -3.82093 | 36987 ft | 414 kts | 223° |
| 2026-04-22 11:21 | 45.43799 | -3.87329 | 36989 ft | 414 kts | 223° |
| 2026-04-22 11:21 | 45.39366 | -3.92540 | 37000 ft | 413 kts | 223° |
| 2026-04-22 11:22 | 45.34933 | -3.97730 | 37000 ft | 412 kts | 223° |
| 2026-04-22 11:22 | 45.30507 | -4.02908 | 36993 ft | 412 kts | 223° |
| 2026-04-22 11:23 | 45.26089 | -4.08092 | 36992 ft | 412 kts | 223° |
| 2026-04-22 11:23 | 45.21630 | -4.13298 | 36995 ft | 412 kts | 223° |
| 2026-04-22 11:24 | 45.17940 | -4.17578 | 37004 ft | 413 kts | 223° |
| 2026-04-22 11:24 | 45.13495 | -4.22733 | 37011 ft | 413 kts | 223° |
| 2026-04-22 11:25 | 45.09048 | -4.27888 | 37004 ft | 413 kts | 223° |
| 2026-04-22 11:25 | 45.04598 | -4.33035 | 37014 ft | 414 kts | 223° |
| 2026-04-22 11:26 | 45.00137 | -4.38190 | 37021 ft | 414 kts | 223° |
| 2026-04-22 11:26 | 44.95669 | -4.43333 | 37027 ft | 415 kts | 223° |
| 2026-04-22 11:27 | 44.91198 | -4.48477 | 37034 ft | 414 kts | 223° |
| 2026-04-22 11:27 | 44.86726 | -4.53610 | 37019 ft | 415 kts | 223° |
| 2026-04-22 11:28 | 44.82238 | -4.58734 | 37023 ft | 415 kts | 223° |
| 2026-04-22 11:28 | 44.77724 | -4.63895 | 37028 ft | 415 kts | 223° |
| 2026-04-22 11:29 | 44.73239 | -4.69011 | 37033 ft | 415 kts | 223° |
| 2026-04-22 11:29 | 44.68752 | -4.74117 | 37035 ft | 415 kts | 223° |
| 2026-04-22 11:30 | 44.64264 | -4.79216 | 37041 ft | 415 kts | 223° |
| 2026-04-22 11:30 | 44.59769 | -4.84301 | 37042 ft | 415 kts | 222° |
| 2026-04-22 11:31 | 44.55273 | -4.89386 | 37046 ft | 415 kts | 222° |
| 2026-04-22 11:31 | 44.50777 | -4.94463 | 37035 ft | 415 kts | 222° |
| 2026-04-22 11:32 | 44.46275 | -4.99533 | 37051 ft | 415 kts | 222° |
| 2026-04-22 11:32 | 44.41780 | -5.04583 | 37053 ft | 414 kts | 222° |
| 2026-04-22 11:33 | 44.37288 | -5.09630 | 37049 ft | 414 kts | 222° |
| 2026-04-22 11:33 | 44.32799 | -5.14659 | 37053 ft | 414 kts | 222° |
| 2026-04-22 11:34 | 44.28301 | -5.19678 | 37045 ft | 414 kts | 222° |
| 2026-04-22 11:34 | 44.23803 | -5.24698 | 37042 ft | 414 kts | 222° |
| 2026-04-22 11:35 | 44.19300 | -5.29716 | 37050 ft | 414 kts | 222° |
| 2026-04-22 11:35 | 44.14791 | -5.34720 | 37057 ft | 414 kts | 221° |
| 2026-04-22 11:36 | 44.10285 | -5.39709 | 37055 ft | 414 kts | 221° |
| 2026-04-22 11:36 | 44.05751 | -5.44723 | 37063 ft | 413 kts | 221° |
| 2026-04-22 11:37 | 44.01250 | -5.49695 | 37059 ft | 413 kts | 221° |
| 2026-04-22 11:37 | 43.96745 | -5.54656 | 37057 ft | 413 kts | 221° |
| 2026-04-22 11:38 | 43.92252 | -5.59626 | 37056 ft | 413 kts | 222° |
| 2026-04-22 11:38 | 43.85595 | -5.67182 | 37046 ft | 413 kts | 222° |
| 2026-04-22 11:39 | 43.81148 | -5.72224 | 37060 ft | 413 kts | 222° |
| 2026-04-22 11:39 | 43.76702 | -5.77232 | 37062 ft | 412 kts | 222° |
| 2026-04-22 11:40 | 43.72253 | -5.82221 | 37059 ft | 411 kts | 222° |
| 2026-04-22 11:40 | 43.67807 | -5.87191 | 37048 ft | 411 kts | 222° |
| 2026-04-22 11:41 | 43.63362 | -5.92153 | 37047 ft | 411 kts | 222° |
| 2026-04-22 11:41 | 43.58916 | -5.97123 | 37063 ft | 411 kts | 224° |
| 2026-04-22 11:42 | 43.55362 | -6.03150 | 37065 ft | 405 kts | 243° |
| 2026-04-22 11:42 | 43.53294 | -6.10330 | 37083 ft | 403 kts | 251° |
| 2026-04-22 11:43 | 43.52377 | -6.13984 | 36973 ft | 404 kts | 251° |
| 2026-04-22 11:43 | 43.51461 | -6.17628 | 36700 ft | 402 kts | 251° |
| 2026-04-22 11:43 | 43.50542 | -6.21265 | 36435 ft | 402 kts | 251° |
| 2026-04-22 11:43 | 43.49620 | -6.24903 | 36171 ft | 402 kts | 250° |
| 2026-04-22 11:44 | 43.48693 | -6.28542 | 35918 ft | 403 kts | 250° |
| 2026-04-22 11:44 | 43.47766 | -6.32185 | 35527 ft | 403 kts | 250° |
| 2026-04-22 11:44 | 43.46837 | -6.35839 | 34801 ft | 406 kts | 250° |
| 2026-04-22 11:44 | 43.45891 | -6.39560 | 34028 ft | 409 kts | 250° |
| 2026-04-22 11:45 | 43.44946 | -6.43269 | 33143 ft | 412 kts | 250° |
| 2026-04-22 11:45 | 43.44008 | -6.46943 | 32381 ft | 412 kts | 249° |
| 2026-04-22 11:45 | 43.43048 | -6.50708 | 31759 ft | 409 kts | 250° |
| 2026-04-22 11:45 | 43.42112 | -6.54384 | 31269 ft | 405 kts | 249° |
| 2026-04-22 11:46 | 43.41183 | -6.58016 | 30742 ft | 401 kts | 249° |
| 2026-04-22 11:46 | 43.40256 | -6.61620 | 30196 ft | 398 kts | 249° |
| 2026-04-22 11:46 | 43.39334 | -6.65195 | 29564 ft | 395 kts | 249° |
| 2026-04-22 11:46 | 43.38424 | -6.68738 | 29008 ft | 391 kts | 249° |
| 2026-04-22 11:47 | 43.37532 | -6.72256 | 28450 ft | 388 kts | 249° |
| 2026-04-22 11:47 | 43.36656 | -6.75743 | 27902 ft | 384 kts | 249° |
| 2026-04-22 11:47 | 43.35786 | -6.79201 | 27352 ft | 382 kts | 249° |
| 2026-04-22 11:47 | 43.34919 | -6.82638 | 26815 ft | 379 kts | 249° |
| 2026-04-22 11:48 | 43.34055 | -6.86045 | 26284 ft | 377 kts | 248° |
| 2026-04-22 11:48 | 43.33195 | -6.89436 | 25759 ft | 375 kts | 248° |
| 2026-04-22 11:48 | 43.32335 | -6.92814 | 25240 ft | 374 kts | 248° |
| 2026-04-22 11:48 | 43.31475 | -6.96182 | 24742 ft | 372 kts | 248° |
| 2026-04-22 11:49 | 43.30620 | -6.99532 | 24252 ft | 371 kts | 248° |
| 2026-04-22 11:49 | 43.29765 | -7.02874 | 23765 ft | 371 kts | 248° |
| 2026-04-22 11:49 | 43.28912 | -7.06213 | 23238 ft | 370 kts | 248° |
| 2026-04-22 11:49 | 43.28063 | -7.09529 | 22755 ft | 367 kts | 248° |
| 2026-04-22 11:50 | 43.27220 | -7.12817 | 22289 ft | 364 kts | 248° |
| 2026-04-22 11:50 | 43.26381 | -7.16083 | 21817 ft | 362 kts | 248° |
| 2026-04-22 11:50 | 43.25546 | -7.19329 | 21348 ft | 359 kts | 248° |
| 2026-04-22 11:50 | 43.24715 | -7.22555 | 20878 ft | 358 kts | 248° |
| 2026-04-22 11:51 | 43.23887 | -7.25761 | 20378 ft | 356 kts | 248° |
| 2026-04-22 11:51 | 43.23058 | -7.28961 | 19876 ft | 355 kts | 248° |
| 2026-04-22 11:51 | 43.22256 | -7.32151 | 19375 ft | 354 kts | 252° |
| 2026-04-22 11:51 | 43.21842 | -7.35487 | 18867 ft | 357 kts | 264° |
| 2026-04-22 11:52 | 43.21979 | -7.38892 | 18336 ft | 360 kts | 276° |
| 2026-04-22 11:52 | 43.22586 | -7.42234 | 17748 ft | 362 kts | 282° |
| 2026-04-22 11:52 | 43.23251 | -7.45550 | 17208 ft | 359 kts | 282° |
| 2026-04-22 11:52 | 43.23915 | -7.48884 | 16666 ft | 357 kts | 282° |
| 2026-04-22 11:53 | 43.24563 | -7.52162 | 16130 ft | 355 kts | 282° |
| 2026-04-22 11:53 | 43.25203 | -7.55420 | 15600 ft | 353 kts | 282° |
| 2026-04-22 11:53 | 43.25842 | -7.58666 | 15070 ft | 352 kts | 282° |
| 2026-04-22 11:53 | 43.26478 | -7.61897 | 14545 ft | 351 kts | 282° |
| 2026-04-22 11:54 | 43.27112 | -7.65129 | 14007 ft | 350 kts | 282° |
| 2026-04-22 11:54 | 43.27744 | -7.68347 | 13438 ft | 349 kts | 282° |
| 2026-04-22 11:54 | 43.28374 | -7.71553 | 12902 ft | 347 kts | 282° |
| 2026-04-22 11:54 | 43.28999 | -7.74735 | 12378 ft | 344 kts | 282° |
| 2026-04-22 11:55 | 43.29617 | -7.77897 | 11861 ft | 341 kts | 281° |
| 2026-04-22 11:55 | 43.30226 | -7.81027 | 11344 ft | 338 kts | 281° |
| 2026-04-22 11:55 | 43.30832 | -7.84133 | 10844 ft | 336 kts | 282° |
| 2026-04-22 11:55 | 43.31430 | -7.87214 | 10404 ft | 332 kts | 281° |
| 2026-04-22 11:56 | 43.32012 | -7.90206 | 10274 ft | 317 kts | 281° |
| 2026-04-22 11:56 | 43.32568 | -7.93057 | 10153 ft | 299 kts | 281° |
| 2026-04-22 11:56 | 43.33093 | -7.95762 | 9867 ft | 289 kts | 281° |
| 2026-04-22 11:56 | 43.33600 | -7.98385 | 9446 ft | 278 kts | 281° |
| 2026-04-22 11:57 | 43.34083 | -8.00904 | 9035 ft | 269 kts | 281° |
| 2026-04-22 11:57 | 43.34556 | -8.03372 | 8614 ft | 266 kts | 282° |
| 2026-04-22 11:57 | 43.35027 | -8.05820 | 8193 ft | 265 kts | 281° |
| 2026-04-22 11:57 | 43.35362 | -8.07432 | 7857 ft | 265 kts | 288° |
| 2026-04-22 11:58 | 43.36265 | -8.09624 | 7420 ft | 265 kts | 306° |
| 2026-04-22 11:58 | 43.37639 | -8.11285 | 6996 ft | 263 kts | 325° |
| 2026-04-22 11:58 | 43.39346 | -8.12233 | 6625 ft | 261 kts | 345° |
| 2026-04-22 11:58 | 43.41126 | -8.12513 | 6276 ft | 253 kts | 350° |
| 2026-04-22 11:59 | 43.42829 | -8.12928 | 5921 ft | 246 kts | 342° |
| 2026-04-22 11:59 | 43.44448 | -8.13627 | 5570 ft | 243 kts | 335° |
| 2026-04-22 11:59 | 43.45971 | -8.14588 | 5210 ft | 239 kts | 327° |
| 2026-04-22 11:59 | 43.47362 | -8.15780 | 4865 ft | 234 kts | 320° |
| 2026-04-22 12:00 | 43.48627 | -8.17187 | 4500 ft | 232 kts | 312° |
| 2026-04-22 12:00 | 43.49625 | -8.18862 | 4140 ft | 221 kts | 285° |
| 2026-04-22 12:00 | 43.49676 | -8.20876 | 3787 ft | 209 kts | 246° |
| 2026-04-22 12:00 | 43.48802 | -8.22392 | 3443 ft | 205 kts | 213° |
| 2026-04-22 12:01 | 43.47565 | -8.23424 | 3179 ft | 208 kts | 210° |
| 2026-04-22 12:01 | 43.46349 | -8.24428 | 3077 ft | 199 kts | 210° |
| 2026-04-22 12:01 | 43.45186 | -8.25388 | 2971 ft | 193 kts | 211° |
| 2026-04-22 12:01 | 43.44080 | -8.26301 | 2852 ft | 178 kts | 211° |
| 2026-04-22 12:02 | 43.43067 | -8.27138 | 2798 ft | 159 kts | 211° |
| 2026-04-22 12:02 | 43.42166 | -8.27880 | 2682 ft | 144 kts | 211° |
| 2026-04-22 12:02 | 43.41350 | -8.28553 | 2585 ft | 134 kts | 210° |
| 2026-04-22 12:02 | 43.40562 | -8.29204 | 2485 ft | 128 kts | 211° |
| 2026-04-22 12:03 | 43.39797 | -8.29833 | 2328 ft | 129 kts | 210° |
| 2026-04-22 12:03 | 43.39030 | -8.30465 | 2177 ft | 129 kts | 210° |
| 2026-04-22 12:03 | 43.38275 | -8.31087 | 1998 ft | 123 kts | 210° |
| 2026-04-22 12:03 | 43.37542 | -8.31690 | 1842 ft | 124 kts | 211° |
| 2026-04-22 12:04 | 43.36796 | -8.32310 | 1689 ft | 126 kts | 210° |
| 2026-04-22 12:04 | 43.36034 | -8.32934 | 1448 ft | 132 kts | 211° |
| 2026-04-22 12:04 | 43.35247 | -8.33578 | 1367 ft | 131 kts | 210° |
| 2026-04-22 12:04 | 43.34455 | -8.34227 | 1175 ft | 133 kts | 211° |
| 2026-04-22 12:05 | 43.33663 | -8.34888 | 985 ft | 133 kts | 209° |
| 2026-04-22 12:05 | 43.32871 | -8.35533 | 807 ft | 135 kts | 208° |
| 2026-04-22 12:05 | 43.32054 | -8.36215 | 643 ft | 139 kts | 209° |
| 2026-04-22 12:05 | 43.31217 | -8.36902 | 394 ft | 140 kts | 210° |
| 2026-04-22 12:06 | 43.30429 | -8.37543 | 285 ft | 119 kts | 208° |
| 2026-04-22 12:06 | 43.29817 | -8.38040 | 276 ft | 70 kts | 212° |
| 2026-04-22 12:06 | 43.29628 | -8.38208 | 270 ft | 12 kts | 231° |
| 2026-04-22 12:06 | 43.29600 | -8.38220 | 270 ft | 4 kts | 92° |
| 2026-04-22 12:07 | 43.29648 | -8.38181 | 270 ft | 12 kts | 27° |
| 2026-04-22 12:07 | 43.29740 | -8.38108 | 273 ft | 18 kts | 32° |
| 2026-04-22 12:07 | 43.29871 | -8.38000 | 273 ft | 25 kts | 29° |
| 2026-04-22 12:07 | 43.29968 | -8.38042 | 273 ft | 15 kts | 311° |
| 2026-04-22 12:08 | 43.30044 | -8.38076 | 274 ft | 11 kts | 359° |
| 2026-04-22 12:08 | 43.30106 | -8.38049 | 274 ft | 7 kts | 30° |
| 2026-04-22 12:08 | 43.30153 | -8.38010 | 274 ft | 8 kts | 31° |
| 2026-04-22 12:08 | 43.30202 | -8.37970 | 274 ft | 6 kts | 31° |
| 2026-04-22 12:09 | 43.30226 | -8.37967 | 274 ft | 5 kts | 336° |
| 2026-04-22 12:09 | 43.30243 | -8.38001 | 274 ft | 3 kts | 302° |
| 2026-04-22 12:09 | 43.30246 | -8.38008 | 274 ft | 0 kts | 301° |